Time;durP1;ratioP1;P1;durP2;ratioP2;P2;SDS_P1;SDS_P2;PMS_P1;PMS_P2;Temp;Humidity;BMP_temperature;BMP_pressure;BME280_temperature;BME280_humidity;BME280_pressure;Samples;Min_cycle;Max_cycle;Signal;HPM_P1;HPM_P2
2019/05/22 00:01:27;;;;;;;1.97;1.87;;;;;;;20.93;47.82;100555.22;;;;-52
2019/05/22 00:04:22;;;;;;;1.83;1.73;;;;;;;20.92;47.84;100555.25;;;;-58
2019/05/22 00:07:14;;;;;;;1.93;1.80;;;;;;;20.91;47.84;100555.31;;;;-53
2019/05/22 00:10:18;;;;;;;1.94;1.73;;;;;;;20.90;47.85;100558.13;;;;-52
2019/05/22 00:13:14;;;;;;;1.93;1.79;;;;;;;20.89;47.84;100562.19;;;;-62
2019/05/22 00:16:14;;;;;;;2.01;1.81;;;;;;;20.88;47.82;100567.45;;;;-61
2019/05/22 00:19:14;;;;;;;1.99;1.85;;;;;;;20.88;47.84;100567.58;;;;-62
2019/05/22 00:22:24;;;;;;;1.83;1.73;;;;;;;20.86;47.86;100572.34;;;;-62
2019/05/22 00:25:19;;;;;;;1.79;1.68;;;;;;;20.86;47.88;100574.38;;;;-52
2019/05/22 00:28:14;;;;;;;1.90;1.80;;;;;;;20.85;47.87;100576.45;;;;-62
2019/05/22 00:31:15;;;;;;;1.89;1.79;;;;;;;20.84;47.89;100576.85;;;;-58
2019/05/22 00:34:14;;;;;;;2.05;1.94;;;;;;;20.83;47.87;100575.87;;;;-57
2019/05/22 00:37:14;;;;;;;2.11;1.90;;;;;;;20.82;47.92;100576.60;;;;-57
2019/05/22 00:40:17;;;;;;;1.92;1.82;;;;;;;20.82;47.88;100576.91;;;;-62
2019/05/22 00:43:14;;;;;;;1.80;1.70;;;;;;;20.81;47.88;100578.03;;;;-51
2019/05/22 00:46:18;;;;;;;1.95;1.80;;;;;;;20.79;47.92;100580.41;;;;-52
2019/05/22 00:49:15;;;;;;;2.00;1.90;;;;;;;20.79;47.89;100577.95;;;;-62
2019/05/22 00:55:27;;;;;;;2.07;1.89;;;;;;;20.77;47.88;100579.55;;;;-61
2019/05/22 00:58:17;;;;;;;1.91;1.80;;;;;;;20.76;47.87;100578.73;;;;-52
2019/05/22 01:01:19;;;;;;;1.75;1.65;;;;;;;20.76;47.90;100579.08;;;;-52
2019/05/22 01:04:18;;;;;;;1.91;1.81;;;;;;;20.75;47.90;100580.98;;;;-62
2019/05/22 01:07:17;;;;;;;1.97;1.87;;;;;;;20.75;47.90;100581.48;;;;-57
2019/05/22 01:10:14;;;;;;;1.82;1.72;;;;;;;20.73;47.94;100581.91;;;;-51
2019/05/22 01:13:14;;;;;;;2.12;1.98;;;;;;;20.73;47.89;100584.09;;;;-58
2019/05/22 01:16:15;;;;;;;2.09;1.96;;;;;;;20.72;47.90;100581.93;;;;-62
2019/05/22 01:19:14;;;;;;;1.95;1.85;;;;;;;20.71;47.96;100587.47;;;;-58
2019/05/22 01:22:14;;;;;;;2.13;1.96;;;;;;;20.70;47.89;100583.29;;;;-52
2019/05/22 01:25:16;;;;;;;1.97;1.84;;;;;;;20.69;47.93;100591.64;;;;-52
2019/05/22 01:28:14;;;;;;;2.18;1.87;;;;;;;20.68;47.94;100589.69;;;;-52
2019/05/22 01:31:21;;;;;;;2.03;1.93;;;;;;;20.67;47.92;100587.97;;;;-58
2019/05/22 01:34:19;;;;;;;2.23;2.03;;;;;;;20.67;47.88;100587.80;;;;-52
2019/05/22 01:37:14;;;;;;;2.10;1.90;;;;;;;20.66;47.94;100592.19;;;;-51
2019/05/22 01:40:18;;;;;;;2.03;1.81;;;;;;;20.66;47.93;100596.66;;;;-53
2019/05/22 01:43:16;;;;;;;1.87;1.77;;;;;;;20.65;47.96;100599.86;;;;-61
2019/05/22 01:46:15;;;;;;;1.90;1.80;;;;;;;20.64;47.92;100599.42;;;;-61
2019/05/22 01:49:14;;;;;;;2.07;1.87;;;;;;;20.63;47.90;100600.22;;;;-61
2019/05/22 01:52:14;;;;;;;1.90;1.80;;;;;;;20.62;47.97;100599.34;;;;-51
2019/05/22 01:55:14;;;;;;;2.01;1.91;;;;;;;20.61;47.98;100603.49;;;;-51
2019/05/22 01:58:14;;;;;;;2.23;2.05;;;;;;;20.60;47.99;100599.09;;;;-61
2019/05/22 02:01:18;;;;;;;1.97;1.87;;;;;;;20.60;47.92;100597.41;;;;-51
2019/05/22 02:04:14;;;;;;;2.27;1.83;;;;;;;20.59;47.91;100595.45;;;;-58
2019/05/22 02:07:14;;;;;;;1.99;1.89;;;;;;;20.59;48.00;100597.13;;;;-62
2019/05/22 02:10:14;;;;;;;2.10;2.00;;;;;;;20.58;47.92;100593.23;;;;-52
2019/05/22 02:13:14;;;;;;;2.18;1.99;;;;;;;20.58;47.92;100595.08;;;;-61
2019/05/22 02:16:14;;;;;;;1.97;1.87;;;;;;;20.57;47.93;100590.56;;;;-53
2019/05/22 02:19:15;;;;;;;1.93;1.83;;;;;;;20.56;47.92;100592.87;;;;-52
2019/05/22 02:22:14;;;;;;;2.14;1.89;;;;;;;20.56;47.97;100590.53;;;;-62
2019/05/22 02:25:14;;;;;;;2.00;1.90;;;;;;;20.55;47.92;100590.59;;;;-61
2019/05/22 02:28:14;;;;;;;2.06;1.91;;;;;;;20.54;47.99;100587.86;;;;-51
2019/05/22 02:31:18;;;;;;;1.89;1.79;;;;;;;20.54;47.96;100593.50;;;;-52
2019/05/22 02:34:14;;;;;;;1.92;1.82;;;;;;;20.53;47.96;100597.66;;;;-52
2019/05/22 02:37:14;;;;;;;2.10;2.00;;;;;;;20.53;47.99;100605.20;;;;-52
2019/05/22 02:40:14;;;;;;;2.32;2.12;;;;;;;20.53;47.95;100608.08;;;;-52
2019/05/22 02:43:15;;;;;;;2.20;2.00;;;;;;;20.52;47.99;100607.74;;;;-52
2019/05/22 02:46:14;;;;;;;2.04;1.94;;;;;;;20.51;47.99;100612.33;;;;-52
2019/05/22 02:49:14;;;;;;;1.85;1.75;;;;;;;20.51;48.00;100612.80;;;;-52
2019/05/22 02:52:14;;;;;;;2.22;2.02;;;;;;;20.51;48.04;100614.20;;;;-52
2019/05/22 02:55:14;;;;;;;2.10;2.00;;;;;;;20.49;48.04;100614.27;;;;-52
2019/05/22 02:58:15;;;;;;;1.90;1.80;;;;;;;20.48;48.09;100616.91;;;;-57
2019/05/22 03:01:14;;;;;;;2.15;1.95;;;;;;;20.48;48.07;100611.70;;;;-58
2019/05/22 03:04:14;;;;;;;2.03;1.93;;;;;;;20.48;48.01;100610.89;;;;-61
2019/05/22 03:07:14;;;;;;;2.09;1.99;;;;;;;20.47;48.08;100611.16;;;;-61
2019/05/22 03:10:14;;;;;;;2.19;1.93;;;;;;;20.47;48.07;100617.92;;;;-61
2019/05/22 03:13:14;;;;;;;2.32;1.97;;;;;;;20.47;48.04;100617.83;;;;-61
2019/05/22 03:16:14;;;;;;;2.37;2.17;;;;;;;20.46;48.04;100616.87;;;;-61
2019/05/22 03:19:14;;;;;;;2.10;1.96;;;;;;;20.45;48.09;100614.66;;;;-51
2019/05/22 03:22:14;;;;;;;2.00;1.90;;;;;;;20.45;48.03;100614.72;;;;-52
2019/05/22 03:25:14;;;;;;;2.08;1.98;;;;;;;20.44;48.06;100612.59;;;;-58
2019/05/22 03:28:14;;;;;;;2.05;1.95;;;;;;;20.44;48.10;100616.86;;;;-57
2019/05/22 03:31:14;;;;;;;2.05;1.95;;;;;;;20.43;48.09;100621.22;;;;-53
2019/05/22 03:34:15;;;;;;;2.13;2.03;;;;;;;20.44;48.08;100623.00;;;;-52
2019/05/22 03:37:14;;;;;;;1.87;1.77;;;;;;;20.43;48.10;100627.48;;;;-52
2019/05/22 03:40:14;;;;;;;2.58;1.89;;;;;;;20.43;48.11;100630.33;;;;-52
2019/05/22 03:43:14;;;;;;;1.83;1.73;;;;;;;20.43;48.06;100631.84;;;;-52
2019/05/22 03:46:14;;;;;;;1.83;1.73;;;;;;;20.44;48.02;100628.70;;;;-52
2019/05/22 03:49:14;;;;;;;1.84;1.71;;;;;;;20.45;47.99;100627.23;;;;-52
2019/05/22 03:52:14;;;;;;;1.84;1.74;;;;;;;20.46;47.94;100625.84;;;;-52
2019/05/22 03:55:14;;;;;;;2.15;1.80;;;;;;;20.48;48.01;100627.13;;;;-51
2019/05/22 03:58:14;;;;;;;1.79;1.69;;;;;;;20.51;47.92;100624.08;;;;-51
2019/05/22 04:01:14;;;;;;;1.70;1.60;;;;;;;20.54;47.99;100626.34;;;;-52
2019/05/22 04:04:14;;;;;;;1.85;1.75;;;;;;;20.57;47.94;100629.16;;;;-51
2019/05/22 04:07:18;;;;;;;1.77;1.67;;;;;;;20.60;48.04;100627.11;;;;-52
2019/05/22 04:10:14;;;;;;;1.70;1.60;;;;;;;20.64;48.04;100630.19;;;;-51
2019/05/22 04:13:14;;;;;;;1.72;1.62;;;;;;;20.68;48.14;100634.89;;;;-51
2019/05/22 04:16:15;;;;;;;1.80;1.70;;;;;;;20.72;48.09;100642.12;;;;-51
2019/05/22 04:19:14;;;;;;;1.83;1.64;;;;;;;20.75;48.10;100648.28;;;;-51
2019/05/22 04:22:14;;;;;;;1.67;1.57;;;;;;;20.78;48.10;100652.38;;;;-51
2019/05/22 04:25:14;;;;;;;1.75;1.65;;;;;;;20.82;48.11;100646.83;;;;-51
2019/05/22 04:28:14;;;;;;;1.81;1.71;;;;;;;20.85;48.14;100648.74;;;;-51
2019/05/22 04:31:14;;;;;;;1.84;1.74;;;;;;;20.87;48.13;100653.93;;;;-51
2019/05/22 04:34:14;;;;;;;1.72;1.61;;;;;;;20.90;48.12;100656.34;;;;-51
2019/05/22 04:37:15;;;;;;;1.85;1.72;;;;;;;20.92;48.14;100659.01;;;;-51
2019/05/22 04:40:14;;;;;;;1.75;1.65;;;;;;;20.95;48.10;100659.70;;;;-51
2019/05/22 04:43:14;;;;;;;1.75;1.65;;;;;;;20.97;48.10;100659.38;;;;-51
2019/05/22 04:46:14;;;;;;;1.75;1.65;;;;;;;20.97;48.09;100656.80;;;;-51
2019/05/22 04:49:14;;;;;;;4.41;2.05;;;;;;;21.03;48.14;100656.05;;;;-51
2019/05/22 04:52:14;;;;;;;2.34;2.02;;;;;;;21.02;48.10;100662.95;;;;-51
2019/05/22 04:55:14;;;;;;;3.07;1.87;;;;;;;21.03;48.10;100663.09;;;;-51
2019/05/22 04:58:16;;;;;;;4.17;1.99;;;;;;;21.04;48.08;100664.21;;;;-51
2019/05/22 05:01:14;;;;;;;2.51;1.85;;;;;;;21.06;48.08;100671.07;;;;-51
2019/05/22 05:04:14;;;;;;;3.35;1.88;;;;;;;21.06;48.03;100676.28;;;;-50
2019/05/22 05:07:14;;;;;;;2.00;1.80;;;;;;;21.07;48.06;100677.39;;;;-56
2019/05/22 05:10:14;;;;;;;1.99;1.74;;;;;;;21.07;48.03;100680.72;;;;-55
2019/05/22 05:13:14;;;;;;;2.73;1.79;;;;;;;21.08;47.96;100678.98;;;;-57
2019/05/22 05:16:14;;;;;;;1.85;1.75;;;;;;;21.09;47.95;100678.98;;;;-61
2019/05/22 05:19:14;;;;;;;1.66;1.56;;;;;;;21.08;47.95;100684.46;;;;-61
2019/05/22 05:22:14;;;;;;;2.46;1.81;;;;;;;21.09;47.91;100680.44;;;;-52
2019/05/22 05:25:14;;;;;;;1.95;1.80;;;;;;;21.10;47.91;100682.77;;;;-51
2019/05/22 05:28:14;;;;;;;1.93;1.80;;;;;;;21.10;47.87;100683.70;;;;-51
2019/05/22 05:31:14;;;;;;;2.49;1.91;;;;;;;21.10;47.87;100689.31;;;;-50
2019/05/22 05:34:14;;;;;;;2.04;1.84;;;;;;;21.09;47.84;100688.87;;;;-57
2019/05/22 05:37:16;;;;;;;2.09;1.89;;;;;;;21.10;47.80;100690.16;;;;-56
2019/05/22 05:40:14;;;;;;;1.89;1.79;;;;;;;21.10;47.78;100696.80;;;;-57
2019/05/22 05:43:14;;;;;;;1.93;1.77;;;;;;;21.11;47.81;100693.45;;;;-50
2019/05/22 05:46:14;;;;;;;2.00;1.81;;;;;;;21.11;47.78;100699.09;;;;-52
2019/05/22 05:49:14;;;;;;;2.30;1.90;;;;;;;21.12;47.79;100702.39;;;;-52
2019/05/22 05:52:14;;;;;;;1.70;1.60;;;;;;;21.11;47.74;100706.38;;;;-52
2019/05/22 05:55:14;;;;;;;1.93;1.77;;;;;;;21.12;47.72;100712.64;;;;-52
2019/05/22 05:58:15;;;;;;;1.69;1.59;;;;;;;21.12;47.72;100711.19;;;;-56
2019/05/22 06:01:17;;;;;;;1.92;1.82;;;;;;;21.11;47.67;100713.70;;;;-51
2019/05/22 06:04:14;;;;;;;1.99;1.80;;;;;;;21.12;47.68;100718.08;;;;-52
2019/05/22 06:07:14;;;;;;;2.26;1.93;;;;;;;21.11;47.66;100719.14;;;;-52
2019/05/22 06:10:14;;;;;;;2.67;1.80;;;;;;;21.12;47.65;100718.41;;;;-56
2019/05/22 06:14:14;;;;;;;2.02;1.83;;;;;;;21.11;47.61;100721.84;;;;-62
2019/05/22 06:17:14;;;;;;;1.81;1.69;;;;;;;21.11;47.60;100721.83;;;;-50
2019/05/22 06:21:14;;;;;;;1.83;1.73;;;;;;;21.10;47.62;100728.20;;;;-56
2019/05/22 06:24:14;;;;;;;2.00;1.83;;;;;;;21.10;47.65;100730.29;;;;-59
2019/05/22 06:27:32;;;;;;;2.01;1.81;;;;;;;21.11;47.85;100733.76;;;;-60
2019/05/22 06:30:16;;;;;;;1.91;1.79;;;;;;;21.13;48.49;100735.58;;;;-59
2019/05/22 06:33:14;;;;;;;4.05;2.07;;;;;;;21.11;48.19;100739.91;;;;-50
2019/05/22 06:36:15;;;;;;;3.30;3.03;;;;;;;21.09;48.54;100743.24;;;;-51
2019/05/22 06:39:14;;;;;;;3.41;3.02;;;;;;;21.09;48.64;100743.07;;;;-51
2019/05/22 06:42:14;;;;;;;3.23;2.93;;;;;;;21.07;48.72;100749.41;;;;-50
2019/05/22 06:45:14;;;;;;;3.11;2.67;;;;;;;21.10;48.45;100754.64;;;;-51
2019/05/22 06:48:14;;;;;;;3.15;2.61;;;;;;;21.12;48.07;100754.02;;;;-52
2019/05/22 06:51:14;;;;;;;5.06;2.93;;;;;;;21.12;48.31;100758.92;;;;-52
2019/05/22 06:54:14;;;;;;;4.95;3.51;;;;;;;21.12;48.60;100762.52;;;;-58
2019/05/22 06:57:16;;;;;;;4.59;3.87;;;;;;;21.14;48.46;100762.27;;;;-58
2019/05/22 07:00:14;;;;;;;6.17;4.09;;;;;;;21.15;48.49;100761.20;;;;-59
2019/05/22 07:03:14;;;;;;;4.57;3.79;;;;;;;21.16;48.43;100763.86;;;;-58
2019/05/22 07:06:14;;;;;;;4.18;3.78;;;;;;;21.17;48.37;100763.06;;;;-57
2019/05/22 07:09:15;;;;;;;4.03;3.61;;;;;;;21.18;48.34;100764.12;;;;-58
2019/05/22 07:12:15;;;;;;;6.53;3.48;;;;;;;21.22;48.94;100768.82;;;;-58
2019/05/22 07:15:14;;;;;;;4.86;3.75;;;;;;;21.20;48.78;100773.00;;;;-54
2019/05/22 07:18:15;;;;;;;6.91;3.99;;;;;;;21.25;48.97;100771.13;;;;-58
2019/05/22 07:21:14;;;;;;;5.33;3.39;;;;;;;21.28;48.85;100771.66;;;;-58
2019/05/22 07:24:14;;;;;;;4.39;3.27;;;;;;;21.29;48.69;100775.73;;;;-51
2019/05/22 07:27:14;;;;;;;4.03;3.15;;;;;;;21.31;48.86;100776.99;;;;-51
2019/05/22 07:30:14;;;;;;;3.89;3.08;;;;;;;21.32;48.55;100776.97;;;;-51
2019/05/22 07:33:14;;;;;;;4.29;3.21;;;;;;;21.36;48.50;100777.10;;;;-53
2019/05/22 07:36:14;;;;;;;3.91;3.17;;;;;;;21.36;48.13;100776.94;;;;-52
2019/05/22 07:39:14;;;;;;;3.92;3.01;;;;;;;21.36;47.99;100780.00;;;;-52
2019/05/22 07:42:14;;;;;;;3.77;2.71;;;;;;;21.36;47.88;100783.52;;;;-52
2019/05/22 07:45:14;;;;;;;4.01;2.93;;;;;;;21.38;47.89;100783.91;;;;-53
2019/05/22 07:48:14;;;;;;;3.27;2.79;;;;;;;21.37;47.85;100780.71;;;;-52
2019/05/22 07:51:14;;;;;;;3.27;2.87;;;;;;;21.38;47.71;100785.15;;;;-52
2019/05/22 07:54:14;;;;;;;4.77;2.85;;;;;;;21.39;47.78;100788.55;;;;-52
2019/05/22 07:57:15;;;;;;;3.90;2.81;;;;;;;21.39;47.70;100790.33;;;;-53
2019/05/22 08:00:14;;;;;;;2.99;2.77;;;;;;;21.38;47.67;100788.61;;;;-52
2019/05/22 08:03:14;;;;;;;3.06;2.69;;;;;;;21.38;47.61;100790.33;;;;-52
2019/05/22 08:06:14;;;;;;;3.58;2.71;;;;;;;21.39;47.55;100788.72;;;;-53
2019/05/22 08:09:14;;;;;;;2.81;2.55;;;;;;;21.38;47.52;100793.02;;;;-53
2019/05/22 08:12:14;;;;;;;3.24;2.79;;;;;;;21.38;47.47;100794.59;;;;-52
2019/05/22 08:15:14;;;;;;;2.99;2.69;;;;;;;21.38;47.45;100798.59;;;;-53
2019/05/22 08:18:14;;;;;;;2.96;2.61;;;;;;;21.37;47.39;100796.30;;;;-53
2019/05/22 08:21:14;;;;;;;3.13;2.83;;;;;;;21.36;47.42;100797.83;;;;-52
2019/05/22 08:24:14;;;;;;;3.02;2.68;;;;;;;21.35;47.34;100799.00;;;;-52
2019/05/22 08:27:14;;;;;;;2.97;2.60;;;;;;;21.33;47.39;100799.42;;;;-52
2019/05/22 08:30:14;;;;;;;3.20;2.90;;;;;;;21.35;47.35;100801.86;;;;-53
2019/05/22 08:33:14;;;;;;;3.06;2.76;;;;;;;21.33;47.38;100801.34;;;;-53
2019/05/22 08:36:14;;;;;;;2.80;2.60;;;;;;;21.32;47.35;100805.27;;;;-53
2019/05/22 08:39:14;;;;;;;2.94;2.69;;;;;;;21.31;47.40;100805.55;;;;-53
2019/05/22 08:42:15;;;;;;;3.45;2.61;;;;;;;21.30;47.33;100804.61;;;;-53
2019/05/22 08:45:14;;;;;;;2.92;2.72;;;;;;;21.30;47.37;100808.97;;;;-52
2019/05/22 08:48:14;;;;;;;2.89;2.67;;;;;;;21.29;47.30;100810.17;;;;-52
2019/05/22 08:51:14;;;;;;;2.74;2.54;;;;;;;21.28;47.31;100811.47;;;;-53
2019/05/22 08:54:14;;;;;;;3.44;2.80;;;;;;;21.28;47.31;100815.17;;;;-53
2019/05/22 08:57:14;;;;;;;3.33;2.79;;;;;;;21.27;47.31;100817.48;;;;-52
2019/05/22 09:00:16;;;;;;;3.99;2.96;;;;;;;21.25;47.43;100824.38;;;;-53
2019/05/22 09:03:14;;;;;;;2.97;2.69;;;;;;;21.25;47.70;100827.23;;;;-52
2019/05/22 09:06:14;;;;;;;3.15;2.63;;;;;;;21.25;47.80;100830.59;;;;-52
2019/05/22 09:09:14;;;;;;;3.09;2.79;;;;;;;21.25;47.85;100836.54;;;;-53
2019/05/22 09:12:15;;;;;;;3.89;2.86;;;;;;;21.23;47.87;100835.22;;;;-53
2019/05/22 09:15:14;;;;;;;3.51;2.70;;;;;;;21.24;47.91;100832.13;;;;-53
2019/05/22 09:18:14;;;;;;;3.36;2.87;;;;;;;21.24;47.96;100834.31;;;;-51
2019/05/22 09:21:14;;;;;;;3.01;2.71;;;;;;;21.24;47.92;100834.25;;;;-53
2019/05/22 09:24:16;;;;;;;2.91;2.71;;;;;;;21.25;48.02;100830.83;;;;-54
2019/05/22 09:27:14;;;;;;;3.79;2.79;;;;;;;21.26;47.79;100831.82;;;;-61
2019/05/22 09:30:14;;;;;;;3.07;2.82;;;;;;;21.25;47.78;100832.34;;;;-60
2019/05/22 09:33:14;;;;;;;2.84;2.61;;;;;;;21.23;47.76;100835.11;;;;-61
2019/05/22 09:36:14;;;;;;;2.94;2.65;;;;;;;21.22;47.75;100834.73;;;;-60
2019/05/22 09:39:14;;;;;;;3.77;2.79;;;;;;;21.21;47.81;100837.88;;;;-57
2019/05/22 09:42:13;;;;;;;4.41;2.72;;;;;;;21.21;47.99;100838.22;;;;-56
2019/05/22 09:45:14;;;;;;;2.83;2.60;;;;;;;21.21;47.98;100837.65;;;;-54
2019/05/22 09:48:14;;;;;;;3.55;2.80;;;;;;;21.20;48.09;100840.80;;;;-58
2019/05/22 09:51:14;;;;;;;6.72;2.87;;;;;;;21.22;47.99;100844.41;;;;-54
2019/05/22 09:54:14;;;;;;;2.89;2.56;;;;;;;21.23;47.93;100846.87;;;;-55
2019/05/22 09:57:14;;;;;;;4.65;2.87;;;;;;;21.24;48.09;100849.44;;;;-54
2019/05/22 10:00:14;;;;;;;3.75;2.69;;;;;;;21.24;48.13;100852.97;;;;-60
2019/05/22 10:03:14;;;;;;;3.25;2.79;;;;;;;21.24;48.21;100852.39;;;;-57
2019/05/22 10:06:14;;;;;;;5.23;2.77;;;;;;;21.23;47.98;100844.95;;;;-63
2019/05/22 10:09:14;;;;;;;4.03;2.67;;;;;;;21.22;48.02;100852.14;;;;-60
2019/05/22 10:12:14;;;;;;;2.83;2.58;;;;;;;21.21;47.96;100850.24;;;;-52
2019/05/22 10:15:14;;;;;;;3.41;2.73;;;;;;;21.20;47.91;100851.77;;;;-61
2019/05/22 10:18:14;;;;;;;5.51;2.75;;;;;;;21.17;47.90;100849.57;;;;-53
2019/05/22 10:21:14;;;;;;;3.79;2.75;;;;;;;21.17;47.91;100851.75;;;;-52
2019/05/22 10:24:14;;;;;;;2.99;2.77;;;;;;;21.16;47.81;100850.13;;;;-63
2019/05/22 10:27:15;;;;;;;3.52;2.89;;;;;;;21.15;47.84;100850.55;;;;-62
2019/05/22 10:30:14;;;;;;;3.92;2.70;;;;;;;21.12;47.79;100848.34;;;;-51
2019/05/22 10:33:14;;;;;;;3.72;2.77;;;;;;;21.12;47.75;100855.39;;;;-62
2019/05/22 10:36:13;;;;;;;3.27;2.72;;;;;;;21.11;47.76;100856.75;;;;-52
2019/05/22 10:39:14;;;;;;;3.27;2.57;;;;;;;21.10;47.75;100857.99;;;;-52
2019/05/22 10:42:14;;;;;;;3.43;2.63;;;;;;;21.09;47.70;100859.23;;;;-52
2019/05/22 10:45:14;;;;;;;2.97;2.61;;;;;;;21.08;47.68;100859.35;;;;-51
2019/05/22 10:48:14;;;;;;;2.89;2.61;;;;;;;21.07;47.69;100858.70;;;;-62
2019/05/22 10:51:14;;;;;;;3.29;2.62;;;;;;;21.05;47.65;100858.61;;;;-52
2019/05/22 10:54:14;;;;;;;2.78;2.58;;;;;;;21.04;47.67;100862.30;;;;-53
2019/05/22 10:57:14;;;;;;;2.89;2.63;;;;;;;21.03;47.65;100855.09;;;;-52
2019/05/22 11:00:14;;;;;;;3.13;2.89;;;;;;;21.01;47.67;100859.03;;;;-53
2019/05/22 11:03:14;;;;;;;2.91;2.63;;;;;;;21.01;47.66;100862.73;;;;-51
2019/05/22 11:06:14;;;;;;;2.83;2.51;;;;;;;20.99;47.65;100857.16;;;;-52
2019/05/22 11:09:14;;;;;;;4.55;2.72;;;;;;;20.99;47.62;100863.64;;;;-51
2019/05/22 11:12:14;;;;;;;2.71;2.51;;;;;;;20.97;47.62;100863.63;;;;-62
2019/05/22 11:15:14;;;;;;;2.97;2.65;;;;;;;20.96;47.65;100868.39;;;;-53
2019/05/22 11:18:14;;;;;;;3.13;2.84;;;;;;;20.95;47.66;100867.50;;;;-51
2019/05/22 11:21:14;;;;;;;3.10;2.78;;;;;;;20.94;47.62;100868.97;;;;-52
2019/05/22 11:24:14;;;;;;;2.77;2.56;;;;;;;20.93;47.61;100868.08;;;;-53
2019/05/22 11:27:14;;;;;;;3.23;2.82;;;;;;;20.93;47.64;100872.67;;;;-62
2019/05/22 11:30:14;;;;;;;3.11;2.81;;;;;;;20.93;47.59;100878.22;;;;-51
2019/05/22 11:33:14;;;;;;;2.70;2.47;;;;;;;20.91;47.65;100879.24;;;;-52
2019/05/22 11:36:14;;;;;;;2.96;2.51;;;;;;;20.91;47.63;100879.00;;;;-52
2019/05/22 11:39:18;;;;;;;2.84;2.64;;;;;;;20.89;47.61;100875.95;;;;-61
2019/05/22 11:42:14;;;;;;;3.11;2.75;;;;;;;20.88;47.67;100877.69;;;;-60
2019/05/22 11:45:14;;;;;;;2.76;2.52;;;;;;;20.88;47.63;100877.32;;;;-60
2019/05/22 11:48:14;;;;;;;3.03;2.59;;;;;;;20.86;47.63;100880.02;;;;-59
2019/05/22 11:51:14;;;;;;;2.80;2.60;;;;;;;20.85;47.65;100873.63;;;;-60
2019/05/22 11:54:14;;;;;;;2.85;2.65;;;;;;;20.84;47.59;100873.08;;;;-62
2019/05/22 11:57:14;;;;;;;2.94;2.59;;;;;;;20.84;47.65;100870.86;;;;-62
2019/05/22 12:00:14;;;;;;;2.69;2.49;;;;;;;20.83;47.61;100868.56;;;;-63
2019/05/22 12:03:14;;;;;;;3.03;2.73;;;;;;;20.82;47.62;100870.47;;;;-61
2019/05/22 12:06:14;;;;;;;3.29;2.99;;;;;;;20.82;47.62;100869.48;;;;-61
2019/05/22 12:09:15;;;;;;;3.13;2.71;;;;;;;20.81;47.68;100870.72;;;;-60
2019/05/22 12:12:14;;;;;;;2.97;2.74;;;;;;;20.81;47.62;100872.73;;;;-60
2019/05/22 12:15:14;;;;;;;3.07;2.77;;;;;;;20.80;47.64;100869.53;;;;-60
2019/05/22 12:18:14;;;;;;;3.05;2.81;;;;;;;20.79;47.61;100867.84;;;;-62
2019/05/22 12:21:14;;;;;;;2.85;2.65;;;;;;;20.78;47.61;100866.12;;;;-60
2019/05/22 12:24:14;;;;;;;3.11;2.81;;;;;;;20.77;47.66;100861.81;;;;-53
2019/05/22 12:27:14;;;;;;;3.25;2.95;;;;;;;20.77;47.58;100866.25;;;;-52
2019/05/22 12:30:14;;;;;;;3.15;2.85;;;;;;;20.76;47.63;100866.88;;;;-52
2019/05/22 12:33:14;;;;;;;3.15;2.85;;;;;;;20.75;47.62;100865.98;;;;-52
2019/05/22 12:36:14;;;;;;;3.24;2.70;;;;;;;20.75;47.62;100864.70;;;;-52
2019/05/22 12:39:14;;;;;;;2.84;2.64;;;;;;;20.75;47.60;100863.70;;;;-52
2019/05/22 12:42:14;;;;;;;3.03;2.73;;;;;;;20.74;47.58;100862.75;;;;-60
2019/05/22 12:45:14;;;;;;;3.14;2.87;;;;;;;20.73;47.68;100859.91;;;;-51
2019/05/22 12:48:14;;;;;;;2.83;2.60;;;;;;;20.71;47.62;100860.87;;;;-52
2019/05/22 12:51:14;;;;;;;2.79;2.59;;;;;;;20.71;47.58;100858.18;;;;-53
2019/05/22 12:54:14;;;;;;;2.78;2.58;;;;;;;20.71;47.60;100855.50;;;;-51
2019/05/22 12:57:14;;;;;;;2.74;2.54;;;;;;;20.71;47.57;100862.21;;;;-52
2019/05/22 13:00:14;;;;;;;3.06;2.75;;;;;;;20.70;47.57;100856.86;;;;-52
2019/05/22 13:03:14;;;;;;;2.69;2.49;;;;;;;20.70;47.60;100858.80;;;;-53
2019/05/22 13:06:14;;;;;;;2.75;2.55;;;;;;;20.68;47.48;100854.36;;;;-52
2019/05/22 13:09:14;;;;;;;2.97;2.74;;;;;;;20.68;47.57;100859.05;;;;-63
2019/05/22 13:12:14;;;;;;;3.18;2.72;;;;;;;20.67;47.52;100857.50;;;;-62
2019/05/22 13:15:14;;;;;;;2.85;2.65;;;;;;;20.67;47.54;100861.58;;;;-62
2019/05/22 13:18:14;;;;;;;2.95;2.75;;;;;;;20.66;47.50;100857.17;;;;-62
2019/05/22 13:21:14;;;;;;;3.10;2.89;;;;;;;20.65;47.53;100857.73;;;;-62
2019/05/22 13:24:14;;;;;;;3.51;2.85;;;;;;;20.64;47.50;100853.66;;;;-63
2019/05/22 13:27:14;;;;;;;2.80;2.60;;;;;;;20.62;47.63;100851.33;;;;-62
2019/05/22 13:30:14;;;;;;;3.03;2.83;;;;;;;20.62;47.54;100855.92;;;;-61
2019/05/22 13:33:14;;;;;;;2.89;2.69;;;;;;;20.61;47.57;100857.73;;;;-53
2019/05/22 13:36:14;;;;;;;3.21;2.91;;;;;;;20.61;47.94;100864.03;;;;-54
2019/05/22 13:39:15;;;;;;;3.57;2.81;;;;;;;20.63;48.00;100865.43;;;;-52
2019/05/22 13:42:14;;;;;;;3.16;2.75;;;;;;;20.68;48.05;100861.23;;;;-47
2019/05/22 13:45:14;;;;;;;4.04;2.89;;;;;;;20.73;48.00;100858.78;;;;-53
2019/05/22 13:48:14;;;;;;;2.99;2.69;;;;;;;20.77;48.18;100852.72;;;;-51
2019/05/22 13:51:14;;;;;;;3.99;3.11;;;;;;;20.79;48.20;100853.58;;;;-58
2019/05/22 13:54:14;;;;;;;6.70;2.79;;;;;;;20.81;48.30;100854.88;;;;-62
2019/05/22 13:57:14;;;;;;;3.25;2.69;;;;;;;20.79;48.22;100852.84;;;;-57
2019/05/22 14:00:15;;;;;;;7.43;2.89;;;;;;;20.80;48.19;100857.79;;;;-53
2019/05/22 14:03:14;;;;;;;5.01;2.93;;;;;;;20.80;48.17;100858.30;;;;-52
2019/05/22 14:06:14;;;;;;;4.01;2.91;;;;;;;20.82;48.17;100859.92;;;;-52
2019/05/22 14:09:18;;;;;;;3.82;2.71;;;;;;;20.82;48.15;100854.05;;;;-49
2019/05/22 14:12:14;;;;;;;5.21;2.81;;;;;;;20.82;48.21;100855.43;;;;-58
2019/05/22 14:15:14;;;;;;;4.59;2.57;;;;;;;20.81;48.13;100850.45;;;;-51
2019/05/22 14:18:14;;;;;;;3.19;2.84;;;;;;;20.80;48.20;100849.91;;;;-53
2019/05/22 14:21:14;;;;;;;4.70;3.03;;;;;;;20.81;48.17;100851.25;;;;-52
2019/05/22 14:24:14;;;;;;;3.11;2.81;;;;;;;20.82;48.15;100851.36;;;;-55
2019/05/22 14:27:14;;;;;;;3.55;2.79;;;;;;;20.81;48.17;100851.19;;;;-57
2019/05/22 14:30:14;;;;;;;3.25;2.82;;;;;;;20.82;48.16;100847.44;;;;-58
2019/05/22 14:33:14;;;;;;;3.05;2.71;;;;;;;20.82;48.13;100847.50;;;;-57
2019/05/22 14:36:14;;;;;;;15.15;3.48;;;;;;;20.83;48.39;100846.84;;;;-49
2019/05/22 14:39:14;;;;;;;5.52;2.97;;;;;;;20.83;48.19;100849.09;;;;-59
2019/05/22 14:42:15;;;;;;;3.02;2.74;;;;;;;20.82;48.21;100847.14;;;;-52
2019/05/22 14:45:13;;;;;;;3.21;2.86;;;;;;;20.80;48.17;100846.03;;;;-59
2019/05/22 14:48:14;;;;;;;5.98;2.77;;;;;;;20.79;48.13;100841.55;;;;-51
2019/05/22 14:51:14;;;;;;;4.93;2.81;;;;;;;20.78;48.20;100837.48;;;;-56
2019/05/22 14:54:14;;;;;;;3.99;2.63;;;;;;;20.76;48.08;100836.77;;;;-61
2019/05/22 14:57:14;;;;;;;4.61;2.67;;;;;;;20.75;48.04;100832.86;;;;-60
2019/05/22 15:00:14;;;;;;;2.80;2.60;;;;;;;20.74;47.97;100835.56;;;;-52
2019/05/22 15:03:14;;;;;;;2.95;2.73;;;;;;;20.73;48.18;100833.83;;;;-57
2019/05/22 15:06:14;;;;;;;3.74;2.77;;;;;;;20.72;48.10;100837.31;;;;-60
2019/05/22 15:09:14;;;;;;;3.36;2.75;;;;;;;20.71;47.94;100838.55;;;;-60
2019/05/22 15:12:14;;;;;;;4.83;2.63;;;;;;;20.71;47.97;100835.69;;;;-60
2019/05/22 15:15:14;;;;;;;3.87;2.79;;;;;;;20.70;47.98;100835.81;;;;-56
2019/05/22 15:18:14;;;;;;;3.41;2.87;;;;;;;20.69;47.85;100835.10;;;;-60
2019/05/22 15:21:15;;;;;;;2.95;2.71;;;;;;;20.69;47.95;100833.31;;;;-59
2019/05/22 15:24:14;;;;;;;3.61;2.99;;;;;;;20.69;47.86;100834.42;;;;-60
2019/05/22 15:27:14;;;;;;;3.43;2.90;;;;;;;20.67;47.86;100832.55;;;;-57
2019/05/22 15:30:14;;;;;;;3.13;2.83;;;;;;;20.66;47.82;100831.50;;;;-57
2019/05/22 15:33:14;;;;;;;3.79;2.82;;;;;;;20.64;47.83;100827.66;;;;-57
2019/05/22 15:36:15;;;;;;;3.07;2.77;;;;;;;20.66;47.87;100830.99;;;;-56
2019/05/22 15:39:16;;;;;;;2.90;2.70;;;;;;;20.63;47.80;100826.77;;;;-57
2019/05/22 15:42:14;;;;;;;3.05;2.85;;;;;;;20.63;47.83;100827.84;;;;-57
2019/05/22 15:46:14;;;;;;;3.39;2.93;;;;;;;20.63;47.84;100829.69;;;;-57
2019/05/22 15:49:14;;;;;;;3.71;3.00;;;;;;;20.60;47.75;100832.61;;;;-56
2019/05/22 15:52:14;;;;;;;3.05;2.76;;;;;;;20.61;47.76;100836.23;;;;-52
2019/05/22 15:55:14;;;;;;;3.31;2.97;;;;;;;20.60;47.78;100836.47;;;;-52
2019/05/22 15:58:14;;;;;;;3.11;2.81;;;;;;;20.59;47.81;100834.30;;;;-52
2019/05/22 16:01:15;;;;;;;3.29;2.99;;;;;;;20.59;47.79;100838.73;;;;-51
2019/05/22 16:04:14;;;;;;;4.50;3.13;;;;;;;20.58;47.75;100836.77;;;;-52
2019/05/22 16:07:14;;;;;;;3.14;2.87;;;;;;;20.58;47.75;100837.17;;;;-59
2019/05/22 16:10:14;;;;;;;2.91;2.69;;;;;;;20.57;47.77;100830.53;;;;-52
2019/05/22 16:13:16;;;;;;;3.07;2.75;;;;;;;20.57;47.80;100828.61;;;;-52
2019/05/22 16:16:14;;;;;;;3.37;3.07;;;;;;;20.56;47.67;100822.09;;;;-52
2019/05/22 16:19:14;;;;;;;3.23;2.93;;;;;;;20.56;47.72;100825.27;;;;-52
2019/05/22 16:22:14;;;;;;;3.15;2.89;;;;;;;20.55;47.76;100825.40;;;;-52
2019/05/22 16:25:14;;;;;;;3.19;2.89;;;;;;;20.55;47.74;100824.78;;;;-60
2019/05/22 16:28:14;;;;;;;3.11;2.91;;;;;;;20.54;47.73;100819.47;;;;-59
2019/05/22 16:31:15;;;;;;;3.48;3.18;;;;;;;20.53;47.73;100820.03;;;;-52
2019/05/22 16:34:14;;;;;;;3.18;2.88;;;;;;;20.52;47.75;100821.27;;;;-60
2019/05/22 16:37:14;;;;;;;3.08;2.88;;;;;;;20.52;47.72;100819.15;;;;-57
2019/05/22 16:40:14;;;;;;;3.17;2.87;;;;;;;20.52;47.63;100816.47;;;;-57
2019/05/22 16:43:14;;;;;;;3.07;2.87;;;;;;;20.51;47.74;100813.47;;;;-57
2019/05/22 16:46:14;;;;;;;3.39;2.94;;;;;;;20.51;47.73;100814.34;;;;-57
2019/05/22 16:49:14;;;;;;;3.25;2.95;;;;;;;20.50;47.79;100809.83;;;;-57